sensor_id;sensor_type;location;lat;lon;timestamp;P1;durP1;ratioP1;P2;durP2;ratioP2
53263;SDS011;39153;52.680;6.172;2023-04-27T00:01:13;9.40;;;4.97;;
53263;SDS011;39153;52.680;6.172;2023-04-27T00:03:39;12.38;;;4.70;;
53263;SDS011;39153;52.680;6.172;2023-04-27T00:06:09;10.20;;;4.70;;
53263;SDS011;39153;52.680;6.172;2023-04-27T00:08:34;10.15;;;4.70;;
53263;SDS011;39153;52.680;6.172;2023-04-27T00:11:00;16.00;;;5.60;;
53263;SDS011;39153;52.680;6.172;2023-04-27T00:13:26;12.18;;;5.45;;
53263;SDS011;39153;52.680;6.172;2023-04-27T00:15:52;12.40;;;4.68;;
53263;SDS011;39153;52.680;6.172;2023-04-27T00:18:18;10.93;;;5.20;;
53263;SDS011;39153;52.680;6.172;2023-04-27T00:20:44;9.23;;;4.65;;
53263;SDS011;39153;52.680;6.172;2023-04-27T00:23:09;7.45;;;4.40;;
53263;SDS011;39153;52.680;6.172;2023-04-27T00:25:35;11.27;;;4.45;;
53263;SDS011;39153;52.680;6.172;2023-04-27T00:28:01;9.45;;;4.07;;
53263;SDS011;39153;52.680;6.172;2023-04-27T00:30:27;11.95;;;4.40;;
53263;SDS011;39153;52.680;6.172;2023-04-27T00:32:52;8.65;;;4.30;;
53263;SDS011;39153;52.680;6.172;2023-04-27T00:35:18;9.60;;;4.72;;
53263;SDS011;39153;52.680;6.172;2023-04-27T00:37:44;10.32;;;4.28;;
53263;SDS011;39153;52.680;6.172;2023-04-27T00:40:10;8.27;;;4.30;;
53263;SDS011;39153;52.680;6.172;2023-04-27T00:42:36;11.40;;;4.80;;
53263;SDS011;39153;52.680;6.172;2023-04-27T00:45:02;9.38;;;4.35;;
53263;SDS011;39153;52.680;6.172;2023-04-27T00:47:30;10.60;;;4.15;;
53263;SDS011;39153;52.680;6.172;2023-04-27T00:49:56;10.32;;;4.28;;
53263;SDS011;39153;52.680;6.172;2023-04-27T00:52:22;8.52;;;4.20;;
53263;SDS011;39153;52.680;6.172;2023-04-27T00:54:50;8.50;;;4.28;;
53263;SDS011;39153;52.680;6.172;2023-04-27T00:57:17;7.40;;;4.22;;
53263;SDS011;39153;52.680;6.172;2023-04-27T00:59:43;9.60;;;4.60;;
53263;SDS011;39153;52.680;6.172;2023-04-27T01:02:10;9.07;;;4.22;;
53263;SDS011;39153;52.680;6.172;2023-04-27T01:04:36;8.65;;;4.40;;
53263;SDS011;39153;52.680;6.172;2023-04-27T01:07:02;7.57;;;4.28;;
53263;SDS011;39153;52.680;6.172;2023-04-27T01:09:28;8.25;;;4.60;;
53263;SDS011;39153;52.680;6.172;2023-04-27T01:11:54;11.95;;;4.70;;
53263;SDS011;39153;52.680;6.172;2023-04-27T01:14:20;9.98;;;4.63;;
53263;SDS011;39153;52.680;6.172;2023-04-27T01:16:46;7.25;;;3.95;;
53263;SDS011;39153;52.680;6.172;2023-04-27T01:19:11;8.65;;;4.60;;
53263;SDS011;39153;52.680;6.172;2023-04-27T01:21:37;10.45;;;5.45;;
53263;SDS011;39153;52.680;6.172;2023-04-27T01:24:06;9.10;;;5.32;;
53263;SDS011;39153;52.680;6.172;2023-04-27T01:26:32;8.98;;;4.60;;
53263;SDS011;39153;52.680;6.172;2023-04-27T01:28:58;10.13;;;4.75;;
53263;SDS011;39153;52.680;6.172;2023-04-27T01:31:24;11.27;;;5.00;;
53263;SDS011;39153;52.680;6.172;2023-04-27T01:33:50;10.43;;;4.82;;
53263;SDS011;39153;52.680;6.172;2023-04-27T01:36:16;9.25;;;5.15;;
53263;SDS011;39153;52.680;6.172;2023-04-27T01:38:41;12.55;;;4.90;;
53263;SDS011;39153;52.680;6.172;2023-04-27T01:41:08;9.70;;;5.30;;
53263;SDS011;39153;52.680;6.172;2023-04-27T01:43:34;9.63;;;5.60;;
53263;SDS011;39153;52.680;6.172;2023-04-27T01:46:10;12.73;;;5.78;;
53263;SDS011;39153;52.680;6.172;2023-04-27T01:48:37;11.32;;;5.72;;
53263;SDS011;39153;52.680;6.172;2023-04-27T01:51:03;11.82;;;6.00;;
53263;SDS011;39153;52.680;6.172;2023-04-27T01:53:29;12.52;;;5.60;;
53263;SDS011;39153;52.680;6.172;2023-04-27T01:55:55;11.90;;;5.93;;
53263;SDS011;39153;52.680;6.172;2023-04-27T01:58:21;12.88;;;6.40;;
53263;SDS011;39153;52.680;6.172;2023-04-27T02:00:47;13.20;;;6.43;;
53263;SDS011;39153;52.680;6.172;2023-04-27T02:03:12;11.70;;;5.82;;
53263;SDS011;39153;52.680;6.172;2023-04-27T02:05:38;13.27;;;6.05;;
53263;SDS011;39153;52.680;6.172;2023-04-27T02:08:04;15.15;;;6.25;;
53263;SDS011;39153;52.680;6.172;2023-04-27T02:10:30;10.48;;;5.57;;
53263;SDS011;39153;52.680;6.172;2023-04-27T02:12:55;13.85;;;6.40;;
53263;SDS011;39153;52.680;6.172;2023-04-27T02:15:21;11.48;;;6.43;;
53263;SDS011;39153;52.680;6.172;2023-04-27T02:17:47;15.43;;;6.18;;
53263;SDS011;39153;52.680;6.172;2023-04-27T02:20:13;14.05;;;6.32;;
53263;SDS011;39153;52.680;6.172;2023-04-27T02:22:42;17.48;;;6.53;;
53263;SDS011;39153;52.680;6.172;2023-04-27T02:25:08;12.52;;;6.03;;
53263;SDS011;39153;52.680;6.172;2023-04-27T02:27:38;13.23;;;6.32;;
53263;SDS011;39153;52.680;6.172;2023-04-27T02:30:05;13.10;;;6.07;;
53263;SDS011;39153;52.680;6.172;2023-04-27T02:32:35;13.35;;;6.15;;
53263;SDS011;39153;52.680;6.172;2023-04-27T02:35:01;11.75;;;5.35;;
53263;SDS011;39153;52.680;6.172;2023-04-27T02:37:28;14.13;;;6.13;;
53263;SDS011;39153;52.680;6.172;2023-04-27T02:39:54;11.77;;;5.55;;
53263;SDS011;39153;52.680;6.172;2023-04-27T02:42:20;13.05;;;6.43;;
53263;SDS011;39153;52.680;6.172;2023-04-27T02:44:46;13.18;;;6.00;;
53263;SDS011;39153;52.680;6.172;2023-04-27T02:47:12;15.63;;;7.35;;
53263;SDS011;39153;52.680;6.172;2023-04-27T02:49:37;12.48;;;6.05;;
53263;SDS011;39153;52.680;6.172;2023-04-27T02:52:04;18.42;;;7.03;;
53263;SDS011;39153;52.680;6.172;2023-04-27T02:54:33;12.95;;;6.25;;
53263;SDS011;39153;52.680;6.172;2023-04-27T02:56:59;14.63;;;6.30;;
53263;SDS011;39153;52.680;6.172;2023-04-27T02:59:25;12.93;;;6.30;;
53263;SDS011;39153;52.680;6.172;2023-04-27T03:01:51;12.75;;;6.25;;
53263;SDS011;39153;52.680;6.172;2023-04-27T03:04:17;12.98;;;6.78;;
53263;SDS011;39153;52.680;6.172;2023-04-27T03:06:43;13.93;;;6.90;;
53263;SDS011;39153;52.680;6.172;2023-04-27T03:09:09;12.82;;;6.38;;
53263;SDS011;39153;52.680;6.172;2023-04-27T03:11:35;14.80;;;6.57;;
53263;SDS011;39153;52.680;6.172;2023-04-27T03:14:01;15.07;;;6.80;;
53263;SDS011;39153;52.680;6.172;2023-04-27T03:16:27;15.50;;;6.63;;
53263;SDS011;39153;52.680;6.172;2023-04-27T03:18:53;12.57;;;6.40;;
53263;SDS011;39153;52.680;6.172;2023-04-27T03:21:18;12.35;;;6.50;;
53263;SDS011;39153;52.680;6.172;2023-04-27T03:23:44;11.85;;;5.90;;
53263;SDS011;39153;52.680;6.172;2023-04-27T03:26:11;15.25;;;7.43;;
53263;SDS011;39153;52.680;6.172;2023-04-27T03:28:38;14.32;;;6.40;;
53263;SDS011;39153;52.680;6.172;2023-04-27T03:31:08;14.25;;;6.30;;
53263;SDS011;39153;52.680;6.172;2023-04-27T03:33:35;13.93;;;6.45;;
53263;SDS011;39153;52.680;6.172;2023-04-27T03:36:01;16.50;;;7.18;;
53263;SDS011;39153;52.680;6.172;2023-04-27T03:38:28;12.70;;;6.22;;
53263;SDS011;39153;52.680;6.172;2023-04-27T03:40:55;10.93;;;6.13;;
53263;SDS011;39153;52.680;6.172;2023-04-27T03:43:21;14.88;;;6.57;;
53263;SDS011;39153;52.680;6.172;2023-04-27T03:45:48;14.95;;;6.10;;
53263;SDS011;39153;52.680;6.172;2023-04-27T03:48:14;12.73;;;5.88;;
53263;SDS011;39153;52.680;6.172;2023-04-27T03:50:41;12.95;;;6.40;;
53263;SDS011;39153;52.680;6.172;2023-04-27T03:53:07;14.18;;;5.97;;
53263;SDS011;39153;52.680;6.172;2023-04-27T03:55:37;11.75;;;5.45;;
53263;SDS011;39153;52.680;6.172;2023-04-27T03:58:04;13.82;;;6.43;;
53263;SDS011;39153;52.680;6.172;2023-04-27T04:00:30;15.25;;;7.28;;
53263;SDS011;39153;52.680;6.172;2023-04-27T04:02:56;13.80;;;6.35;;
53263;SDS011;39153;52.680;6.172;2023-04-27T04:05:21;20.38;;;7.25;;
53263;SDS011;39153;52.680;6.172;2023-04-27T04:07:47;17.90;;;7.43;;
53263;SDS011;39153;52.680;6.172;2023-04-27T04:10:13;16.48;;;7.90;;
53263;SDS011;39153;52.680;6.172;2023-04-27T04:12:38;17.17;;;7.72;;
53263;SDS011;39153;52.680;6.172;2023-04-27T04:15:04;16.63;;;7.45;;
53263;SDS011;39153;52.680;6.172;2023-04-27T04:17:31;19.02;;;8.50;;
53263;SDS011;39153;52.680;6.172;2023-04-27T04:19:58;17.13;;;8.32;;
53263;SDS011;39153;52.680;6.172;2023-04-27T04:22:24;17.60;;;7.80;;
53263;SDS011;39153;52.680;6.172;2023-04-27T04:24:50;14.55;;;7.05;;
53263;SDS011;39153;52.680;6.172;2023-04-27T04:27:16;16.98;;;8.23;;
53263;SDS011;39153;52.680;6.172;2023-04-27T04:29:42;15.18;;;7.18;;
53263;SDS011;39153;52.680;6.172;2023-04-27T04:32:07;16.30;;;7.75;;
53263;SDS011;39153;52.680;6.172;2023-04-27T04:34:34;14.63;;;6.65;;
53263;SDS011;39153;52.680;6.172;2023-04-27T04:37:00;22.35;;;7.20;;
53263;SDS011;39153;52.680;6.172;2023-04-27T04:39:29;15.90;;;6.90;;
53263;SDS011;39153;52.680;6.172;2023-04-27T04:41:56;13.95;;;7.03;;
53263;SDS011;39153;52.680;6.172;2023-04-27T04:44:21;14.38;;;6.43;;
53263;SDS011;39153;52.680;6.172;2023-04-27T04:46:47;17.52;;;7.45;;
53263;SDS011;39153;52.680;6.172;2023-04-27T04:49:13;13.77;;;6.30;;
53263;SDS011;39153;52.680;6.172;2023-04-27T04:51:42;12.93;;;6.35;;
53263;SDS011;39153;52.680;6.172;2023-04-27T04:54:08;13.38;;;6.70;;
53263;SDS011;39153;52.680;6.172;2023-04-27T04:56:34;14.18;;;6.97;;
53263;SDS011;39153;52.680;6.172;2023-04-27T04:59:00;13.88;;;6.60;;
53263;SDS011;39153;52.680;6.172;2023-04-27T05:01:26;16.98;;;6.95;;
53263;SDS011;39153;52.680;6.172;2023-04-27T05:03:51;16.17;;;6.63;;
53263;SDS011;39153;52.680;6.172;2023-04-27T05:06:17;13.52;;;6.25;;
53263;SDS011;39153;52.680;6.172;2023-04-27T05:08:43;17.25;;;6.38;;
53263;SDS011;39153;52.680;6.172;2023-04-27T05:11:09;16.20;;;7.32;;
53263;SDS011;39153;52.680;6.172;2023-04-27T05:13:35;16.80;;;7.68;;
53263;SDS011;39153;52.680;6.172;2023-04-27T05:16:05;15.98;;;7.75;;
53263;SDS011;39153;52.680;6.172;2023-04-27T05:18:32;16.23;;;7.63;;
53263;SDS011;39153;52.680;6.172;2023-04-27T05:20:58;15.68;;;8.02;;
53263;SDS011;39153;52.680;6.172;2023-04-27T05:23:24;14.40;;;7.65;;
53263;SDS011;39153;52.680;6.172;2023-04-27T05:25:50;17.48;;;7.72;;
53263;SDS011;39153;52.680;6.172;2023-04-27T05:28:16;16.90;;;7.82;;
53263;SDS011;39153;52.680;6.172;2023-04-27T05:30:42;16.77;;;8.23;;
53263;SDS011;39153;52.680;6.172;2023-04-27T05:33:08;20.27;;;9.02;;
53263;SDS011;39153;52.680;6.172;2023-04-27T05:35:33;21.95;;;9.60;;
53263;SDS011;39153;52.680;6.172;2023-04-27T05:37:59;24.13;;;9.60;;
53263;SDS011;39153;52.680;6.172;2023-04-27T05:40:25;16.83;;;8.52;;
53263;SDS011;39153;52.680;6.172;2023-04-27T05:42:51;16.40;;;9.13;;
53263;SDS011;39153;52.680;6.172;2023-04-27T05:45:17;19.40;;;8.80;;
53263;SDS011;39153;52.680;6.172;2023-04-27T05:47:43;18.73;;;8.85;;
53263;SDS011;39153;52.680;6.172;2023-04-27T05:50:09;19.85;;;9.10;;
53263;SDS011;39153;52.680;6.172;2023-04-27T05:52:35;19.63;;;9.50;;
53263;SDS011;39153;52.680;6.172;2023-04-27T05:55:01;18.77;;;9.27;;
53263;SDS011;39153;52.680;6.172;2023-04-27T05:57:28;20.17;;;9.82;;
53263;SDS011;39153;52.680;6.172;2023-04-27T05:59:54;14.82;;;8.57;;
53263;SDS011;39153;52.680;6.172;2023-04-27T06:02:21;14.93;;;9.05;;
53263;SDS011;39153;52.680;6.172;2023-04-27T06:04:47;17.05;;;9.02;;
53263;SDS011;39153;52.680;6.172;2023-04-27T06:07:13;18.45;;;9.57;;
53263;SDS011;39153;52.680;6.172;2023-04-27T06:09:40;18.08;;;9.95;;
53263;SDS011;39153;52.680;6.172;2023-04-27T06:12:06;14.52;;;8.63;;
53263;SDS011;39153;52.680;6.172;2023-04-27T06:14:33;16.55;;;8.02;;
53263;SDS011;39153;52.680;6.172;2023-04-27T06:17:00;17.40;;;9.13;;
53263;SDS011;39153;52.680;6.172;2023-04-27T06:19:26;15.35;;;8.85;;
53263;SDS011;39153;52.680;6.172;2023-04-27T06:21:54;18.45;;;9.68;;
53263;SDS011;39153;52.680;6.172;2023-04-27T06:24:21;18.80;;;9.38;;
53263;SDS011;39153;52.680;6.172;2023-04-27T06:26:49;16.83;;;8.80;;
53263;SDS011;39153;52.680;6.172;2023-04-27T06:29:15;15.73;;;8.80;;
53263;SDS011;39153;52.680;6.172;2023-04-27T06:31:41;16.20;;;8.77;;
53263;SDS011;39153;52.680;6.172;2023-04-27T06:34:07;15.30;;;8.65;;
53263;SDS011;39153;52.680;6.172;2023-04-27T06:36:32;16.10;;;7.72;;
53263;SDS011;39153;52.680;6.172;2023-04-27T06:38:58;14.63;;;7.97;;
53263;SDS011;39153;52.680;6.172;2023-04-27T06:41:24;14.07;;;7.18;;
53263;SDS011;39153;52.680;6.172;2023-04-27T06:43:51;13.15;;;7.30;;
53263;SDS011;39153;52.680;6.172;2023-04-27T06:46:17;12.43;;;6.97;;
53263;SDS011;39153;52.680;6.172;2023-04-27T06:48:43;12.45;;;6.15;;
53263;SDS011;39153;52.680;6.172;2023-04-27T06:51:10;13.98;;;6.07;;
53263;SDS011;39153;52.680;6.172;2023-04-27T06:53:37;9.73;;;5.22;;
53263;SDS011;39153;52.680;6.172;2023-04-27T06:56:03;8.25;;;4.35;;
53263;SDS011;39153;52.680;6.172;2023-04-27T06:58:30;11.52;;;4.43;;
53263;SDS011;39153;52.680;6.172;2023-04-27T07:00:55;8.35;;;4.78;;
53263;SDS011;39153;52.680;6.172;2023-04-27T07:03:21;10.88;;;4.40;;
53263;SDS011;39153;52.680;6.172;2023-04-27T07:05:47;10.88;;;4.72;;
53263;SDS011;39153;52.680;6.172;2023-04-27T07:08:13;10.60;;;4.50;;
53263;SDS011;39153;52.680;6.172;2023-04-27T07:10:38;12.20;;;4.40;;
53263;SDS011;39153;52.680;6.172;2023-04-27T07:13:04;10.18;;;4.88;;
53263;SDS011;39153;52.680;6.172;2023-04-27T07:15:30;13.55;;;4.80;;
53263;SDS011;39153;52.680;6.172;2023-04-27T07:17:56;10.38;;;4.15;;
53263;SDS011;39153;52.680;6.172;2023-04-27T07:20:21;9.65;;;4.75;;
53263;SDS011;39153;52.680;6.172;2023-04-27T07:22:48;10.50;;;4.18;;
53263;SDS011;39153;52.680;6.172;2023-04-27T07:25:14;6.53;;;3.70;;
53263;SDS011;39153;52.680;6.172;2023-04-27T07:27:39;8.85;;;4.53;;
53263;SDS011;39153;52.680;6.172;2023-04-27T07:30:05;7.72;;;4.40;;
53263;SDS011;39153;52.680;6.172;2023-04-27T07:32:34;7.30;;;3.75;;
53263;SDS011;39153;52.680;6.172;2023-04-27T07:35:00;8.10;;;3.42;;
53263;SDS011;39153;52.680;6.172;2023-04-27T07:37:26;10.07;;;3.90;;
53263;SDS011;39153;52.680;6.172;2023-04-27T07:39:52;10.75;;;4.00;;
53263;SDS011;39153;52.680;6.172;2023-04-27T07:42:18;10.95;;;4.03;;
53263;SDS011;39153;52.680;6.172;2023-04-27T07:44:46;13.07;;;3.80;;
53263;SDS011;39153;52.680;6.172;2023-04-27T07:47:14;6.68;;;3.88;;
53263;SDS011;39153;52.680;6.172;2023-04-27T07:49:40;7.10;;;3.88;;
53263;SDS011;39153;52.680;6.172;2023-04-27T07:52:06;7.10;;;3.53;;
53263;SDS011;39153;52.680;6.172;2023-04-27T07:54:33;9.88;;;4.07;;
53263;SDS011;39153;52.680;6.172;2023-04-27T07:56:59;8.32;;;3.30;;
53263;SDS011;39153;52.680;6.172;2023-04-27T07:59:27;7.45;;;3.70;;
53263;SDS011;39153;52.680;6.172;2023-04-27T08:01:54;10.60;;;3.72;;
53263;SDS011;39153;52.680;6.172;2023-04-27T08:04:20;7.78;;;3.47;;
53263;SDS011;39153;52.680;6.172;2023-04-27T08:06:45;8.82;;;3.60;;
53263;SDS011;39153;52.680;6.172;2023-04-27T08:09:11;7.75;;;3.70;;
53263;SDS011;39153;52.680;6.172;2023-04-27T08:11:37;9.02;;;3.63;;
53263;SDS011;39153;52.680;6.172;2023-04-27T08:14:02;8.13;;;3.42;;
53263;SDS011;39153;52.680;6.172;2023-04-27T08:16:28;6.47;;;3.30;;
53263;SDS011;39153;52.680;6.172;2023-04-27T08:18:54;8.00;;;3.05;;
53263;SDS011;39153;52.680;6.172;2023-04-27T08:21:20;6.32;;;3.25;;
53263;SDS011;39153;52.680;6.172;2023-04-27T08:23:45;9.25;;;2.80;;
53263;SDS011;39153;52.680;6.172;2023-04-27T08:26:14;6.32;;;3.00;;
53263;SDS011;39153;52.680;6.172;2023-04-27T08:28:40;9.80;;;3.42;;
53263;SDS011;39153;52.680;6.172;2023-04-27T08:31:06;6.93;;;2.78;;
53263;SDS011;39153;52.680;6.172;2023-04-27T08:33:31;6.75;;;2.92;;
53263;SDS011;39153;52.680;6.172;2023-04-27T08:35:57;8.80;;;3.60;;
53263;SDS011;39153;52.680;6.172;2023-04-27T08:38:23;5.85;;;3.50;;
53263;SDS011;39153;52.680;6.172;2023-04-27T08:40:48;6.38;;;3.15;;
53263;SDS011;39153;52.680;6.172;2023-04-27T08:43:14;8.50;;;3.63;;
53263;SDS011;39153;52.680;6.172;2023-04-27T08:45:45;5.13;;;2.80;;
53263;SDS011;39153;52.680;6.172;2023-04-27T08:48:14;7.32;;;2.70;;
53263;SDS011;39153;52.680;6.172;2023-04-27T08:50:41;6.00;;;2.63;;
53263;SDS011;39153;52.680;6.172;2023-04-27T08:53:15;4.80;;;2.40;;
53263;SDS011;39153;52.680;6.172;2023-04-27T08:55:45;8.65;;;2.97;;
53263;SDS011;39153;52.680;6.172;2023-04-27T08:58:11;7.68;;;3.08;;
53263;SDS011;39153;52.680;6.172;2023-04-27T09:00:37;6.75;;;3.60;;
53263;SDS011;39153;52.680;6.172;2023-04-27T09:03:23;7.63;;;2.97;;
53263;SDS011;39153;52.680;6.172;2023-04-27T09:05:49;5.13;;;2.67;;
53263;SDS011;39153;52.680;6.172;2023-04-27T09:08:15;6.22;;;2.17;;
53263;SDS011;39153;52.680;6.172;2023-04-27T09:10:51;4.00;;;2.33;;
53263;SDS011;39153;52.680;6.172;2023-04-27T09:13:17;6.75;;;2.47;;
53263;SDS011;39153;52.680;6.172;2023-04-27T09:15:43;5.15;;;2.30;;
53263;SDS011;39153;52.680;6.172;2023-04-27T09:18:14;7.88;;;2.65;;
53263;SDS011;39153;52.680;6.172;2023-04-27T09:20:48;5.53;;;2.40;;
53263;SDS011;39153;52.680;6.172;2023-04-27T09:23:27;5.03;;;2.30;;
53263;SDS011;39153;52.680;6.172;2023-04-27T09:25:57;6.43;;;2.55;;
53263;SDS011;39153;52.680;6.172;2023-04-27T09:28:24;5.55;;;2.35;;
53263;SDS011;39153;52.680;6.172;2023-04-27T09:30:55;7.35;;;2.72;;
53263;SDS011;39153;52.680;6.172;2023-04-27T09:33:23;5.78;;;2.80;;
53263;SDS011;39153;52.680;6.172;2023-04-27T09:35:52;8.05;;;2.80;;
53263;SDS011;39153;52.680;6.172;2023-04-27T09:38:19;7.13;;;2.90;;
53263;SDS011;39153;52.680;6.172;2023-04-27T09:40:46;5.38;;;2.55;;
53263;SDS011;39153;52.680;6.172;2023-04-27T09:43:12;7.20;;;3.17;;
53263;SDS011;39153;52.680;6.172;2023-04-27T09:45:38;7.47;;;3.15;;
53263;SDS011;39153;52.680;6.172;2023-04-27T09:48:05;9.43;;;3.22;;
53263;SDS011;39153;52.680;6.172;2023-04-27T09:50:35;7.97;;;2.90;;
53263;SDS011;39153;52.680;6.172;2023-04-27T09:53:09;7.97;;;3.70;;
53263;SDS011;39153;52.680;6.172;2023-04-27T10:07:02;8.43;;;3.55;;
53263;SDS011;39153;52.680;6.172;2023-04-27T10:09:35;6.88;;;2.80;;
53263;SDS011;39153;52.680;6.172;2023-04-27T10:14:54;9.38;;;3.40;;
53263;SDS011;39153;52.680;6.172;2023-04-27T10:19:57;8.52;;;3.22;;
53263;SDS011;39153;52.680;6.172;2023-04-27T10:25:39;6.00;;;3.20;;
53263;SDS011;39153;52.680;6.172;2023-04-27T10:28:04;6.90;;;3.20;;
53263;SDS011;39153;52.680;6.172;2023-04-27T10:30:34;7.75;;;3.13;;
53263;SDS011;39153;52.680;6.172;2023-04-27T10:33:07;6.57;;;3.40;;
53263;SDS011;39153;52.680;6.172;2023-04-27T10:35:44;7.90;;;3.53;;
53263;SDS011;39153;52.680;6.172;2023-04-27T10:38:19;6.55;;;3.38;;
53263;SDS011;39153;52.680;6.172;2023-04-27T10:43:22;5.95;;;3.40;;
53263;SDS011;39153;52.680;6.172;2023-04-27T10:45:51;6.00;;;3.30;;
53263;SDS011;39153;52.680;6.172;2023-04-27T10:48:16;6.18;;;3.63;;
53263;SDS011;39153;52.680;6.172;2023-04-27T10:50:42;6.75;;;3.63;;
53263;SDS011;39153;52.680;6.172;2023-04-27T10:53:08;7.82;;;4.03;;
53263;SDS011;39153;52.680;6.172;2023-04-27T10:55:34;9.52;;;4.45;;
53263;SDS011;39153;52.680;6.172;2023-04-27T10:58:00;9.25;;;4.20;;
53263;SDS011;39153;52.680;6.172;2023-04-27T11:00:27;7.38;;;3.40;;
53263;SDS011;39153;52.680;6.172;2023-04-27T11:02:57;6.53;;;3.40;;
53263;SDS011;39153;52.680;6.172;2023-04-27T11:05:34;8.43;;;4.13;;
53263;SDS011;39153;52.680;6.172;2023-04-27T11:08:10;8.15;;;4.05;;
53263;SDS011;39153;52.680;6.172;2023-04-27T11:10:38;8.65;;;3.83;;
53263;SDS011;39153;52.680;6.172;2023-04-27T11:13:23;5.22;;;2.95;;
53263;SDS011;39153;52.680;6.172;2023-04-27T11:15:51;5.93;;;3.38;;
53263;SDS011;39153;52.680;6.172;2023-04-27T11:18:22;9.55;;;4.13;;
53263;SDS011;39153;52.680;6.172;2023-04-27T11:20:54;7.20;;;3.70;;
53263;SDS011;39153;52.680;6.172;2023-04-27T11:23:31;8.65;;;3.85;;
53263;SDS011;39153;52.680;6.172;2023-04-27T11:28:34;9.10;;;3.40;;
53263;SDS011;39153;52.680;6.172;2023-04-27T11:31:00;6.47;;;3.30;;
53263;SDS011;39153;52.680;6.172;2023-04-27T11:33:26;8.15;;;3.60;;
53263;SDS011;39153;52.680;6.172;2023-04-27T11:35:52;7.55;;;3.30;;
53263;SDS011;39153;52.680;6.172;2023-04-27T11:38:18;6.00;;;3.05;;
53263;SDS011;39153;52.680;6.172;2023-04-27T11:40:46;6.32;;;3.78;;
53263;SDS011;39153;52.680;6.172;2023-04-27T11:43:24;6.68;;;3.63;;
53263;SDS011;39153;52.680;6.172;2023-04-27T11:45:50;6.78;;;3.63;;
53263;SDS011;39153;52.680;6.172;2023-04-27T11:48:16;8.13;;;3.83;;
53263;SDS011;39153;52.680;6.172;2023-04-27T11:50:45;6.68;;;3.80;;
53263;SDS011;39153;52.680;6.172;2023-04-27T11:53:12;5.93;;;3.65;;
53263;SDS011;39153;52.680;6.172;2023-04-27T11:55:38;8.52;;;4.22;;
53263;SDS011;39153;52.680;6.172;2023-04-27T11:58:05;8.25;;;3.88;;
53263;SDS011;39153;52.680;6.172;2023-04-27T12:00:38;7.30;;;3.83;;
53263;SDS011;39153;52.680;6.172;2023-04-27T12:03:03;8.90;;;4.53;;
53263;SDS011;39153;52.680;6.172;2023-04-27T12:05:29;7.55;;;3.63;;
53263;SDS011;39153;52.680;6.172;2023-04-27T12:07:55;7.85;;;3.35;;
53263;SDS011;39153;52.680;6.172;2023-04-27T12:10:21;6.47;;;3.53;;
53263;SDS011;39153;52.680;6.172;2023-04-27T12:12:46;9.50;;;3.90;;
53263;SDS011;39153;52.680;6.172;2023-04-27T12:15:12;7.88;;;4.03;;
53263;SDS011;39153;52.680;6.172;2023-04-27T12:17:38;7.85;;;3.83;;
53263;SDS011;39153;52.680;6.172;2023-04-27T12:20:04;7.40;;;3.35;;
53263;SDS011;39153;52.680;6.172;2023-04-27T12:22:30;8.57;;;3.72;;
53263;SDS011;39153;52.680;6.172;2023-04-27T12:24:56;7.63;;;3.88;;
53263;SDS011;39153;52.680;6.172;2023-04-27T12:27:22;7.20;;;3.88;;
53263;SDS011;39153;52.680;6.172;2023-04-27T12:29:47;7.25;;;3.53;;
53263;SDS011;39153;52.680;6.172;2023-04-27T12:32:13;6.68;;;3.70;;
53263;SDS011;39153;52.680;6.172;2023-04-27T12:34:39;7.13;;;3.80;;
53263;SDS011;39153;52.680;6.172;2023-04-27T12:37:06;6.40;;;3.63;;
53263;SDS011;39153;52.680;6.172;2023-04-27T12:39:32;6.60;;;3.35;;
53263;SDS011;39153;52.680;6.172;2023-04-27T12:41:58;8.15;;;3.33;;
53263;SDS011;39153;52.680;6.172;2023-04-27T12:44:23;6.10;;;3.20;;
53263;SDS011;39153;52.680;6.172;2023-04-27T12:46:50;6.72;;;3.08;;
53263;SDS011;39153;52.680;6.172;2023-04-27T12:49:16;7.45;;;3.72;;
53263;SDS011;39153;52.680;6.172;2023-04-27T12:51:42;6.57;;;3.78;;
53263;SDS011;39153;52.680;6.172;2023-04-27T12:54:08;6.72;;;3.65;;
53263;SDS011;39153;52.680;6.172;2023-04-27T12:56:35;8.25;;;3.90;;
53263;SDS011;39153;52.680;6.172;2023-04-27T12:59:01;6.18;;;3.38;;
53263;SDS011;39153;52.680;6.172;2023-04-27T13:01:26;5.55;;;3.30;;
53263;SDS011;39153;52.680;6.172;2023-04-27T13:03:53;5.93;;;3.50;;
53263;SDS011;39153;52.680;6.172;2023-04-27T13:06:19;8.10;;;3.97;;
53263;SDS011;39153;52.680;6.172;2023-04-27T13:08:47;6.10;;;3.05;;
53263;SDS011;39153;52.680;6.172;2023-04-27T13:11:13;6.25;;;3.17;;
53263;SDS011;39153;52.680;6.172;2023-04-27T13:13:39;6.68;;;3.10;;
53263;SDS011;39153;52.680;6.172;2023-04-27T13:16:05;6.13;;;3.28;;
53263;SDS011;39153;52.680;6.172;2023-04-27T13:18:31;7.75;;;3.70;;
53263;SDS011;39153;52.680;6.172;2023-04-27T13:20:57;6.15;;;3.60;;
53263;SDS011;39153;52.680;6.172;2023-04-27T13:23:22;7.32;;;3.35;;
53263;SDS011;39153;52.680;6.172;2023-04-27T13:25:50;9.15;;;3.55;;
53263;SDS011;39153;52.680;6.172;2023-04-27T13:28:16;6.05;;;3.10;;
53263;SDS011;39153;52.680;6.172;2023-04-27T13:30:42;8.23;;;3.83;;
53263;SDS011;39153;52.680;6.172;2023-04-27T13:33:09;6.57;;;3.55;;
53263;SDS011;39153;52.680;6.172;2023-04-27T13:35:36;6.18;;;3.47;;
53263;SDS011;39153;52.680;6.172;2023-04-27T13:38:02;7.53;;;3.40;;
53263;SDS011;39153;52.680;6.172;2023-04-27T13:40:28;5.88;;;3.40;;
53263;SDS011;39153;52.680;6.172;2023-04-27T13:42:54;8.63;;;3.55;;
53263;SDS011;39153;52.680;6.172;2023-04-27T13:45:19;5.82;;;3.00;;
53263;SDS011;39153;52.680;6.172;2023-04-27T13:47:45;5.68;;;3.25;;
53263;SDS011;39153;52.680;6.172;2023-04-27T13:50:11;6.82;;;3.10;;
53263;SDS011;39153;52.680;6.172;2023-04-27T13:52:37;7.22;;;3.08;;
53263;SDS011;39153;52.680;6.172;2023-04-27T13:55:04;9.15;;;3.67;;
53263;SDS011;39153;52.680;6.172;2023-04-27T13:57:31;9.95;;;3.35;;
53263;SDS011;39153;52.680;6.172;2023-04-27T13:59:57;7.03;;;3.33;;
53263;SDS011;39153;52.680;6.172;2023-04-27T14:02:29;7.20;;;3.40;;
53263;SDS011;39153;52.680;6.172;2023-04-27T14:04:55;7.95;;;3.42;;
53263;SDS011;39153;52.680;6.172;2023-04-27T14:07:21;5.60;;;3.65;;
53263;SDS011;39153;52.680;6.172;2023-04-27T14:09:47;7.15;;;3.30;;
53263;SDS011;39153;52.680;6.172;2023-04-27T14:12:12;7.18;;;3.22;;
53263;SDS011;39153;52.680;6.172;2023-04-27T14:14:38;7.65;;;3.30;;
53263;SDS011;39153;52.680;6.172;2023-04-27T14:17:04;7.53;;;3.25;;
53263;SDS011;39153;52.680;6.172;2023-04-27T14:19:30;5.80;;;3.10;;
53263;SDS011;39153;52.680;6.172;2023-04-27T14:21:56;5.90;;;3.10;;
53263;SDS011;39153;52.680;6.172;2023-04-27T14:24:23;5.28;;;3.10;;
53263;SDS011;39153;52.680;6.172;2023-04-27T14:26:49;6.88;;;3.05;;
53263;SDS011;39153;52.680;6.172;2023-04-27T14:29:15;7.63;;;3.08;;
53263;SDS011;39153;52.680;6.172;2023-04-27T14:31:42;6.15;;;3.08;;
53263;SDS011;39153;52.680;6.172;2023-04-27T14:34:08;6.38;;;3.15;;
53263;SDS011;39153;52.680;6.172;2023-04-27T14:36:33;6.47;;;3.20;;
53263;SDS011;39153;52.680;6.172;2023-04-27T14:38:59;5.18;;;2.60;;
53263;SDS011;39153;52.680;6.172;2023-04-27T14:41:26;7.05;;;2.92;;
53263;SDS011;39153;52.680;6.172;2023-04-27T14:43:53;6.88;;;2.80;;
53263;SDS011;39153;52.680;6.172;2023-04-27T14:46:18;5.53;;;2.70;;
53263;SDS011;39153;52.680;6.172;2023-04-27T14:48:45;7.15;;;2.50;;
53263;SDS011;39153;52.680;6.172;2023-04-27T14:51:14;6.88;;;2.90;;
53263;SDS011;39153;52.680;6.172;2023-04-27T14:53:40;5.32;;;2.92;;
53263;SDS011;39153;52.680;6.172;2023-04-27T14:56:06;7.55;;;3.15;;
53263;SDS011;39153;52.680;6.172;2023-04-27T14:58:32;5.65;;;3.10;;
53263;SDS011;39153;52.680;6.172;2023-04-27T15:00:59;6.72;;;2.95;;
53263;SDS011;39153;52.680;6.172;2023-04-27T15:03:25;5.63;;;2.75;;